Time;durP1;ratioP1;P1;durP2;ratioP2;P2;SDS_P1;SDS_P2;PMS_P1;PMS_P2;Temp;Humidity;BMP_temperature;BMP_pressure;BME280_temperature;BME280_humidity;BME280_pressure;Samples;Min_cycle;Max_cycle;Signal;HPM_P1;HPM_P2
2022/08/06 00:01:55;;;;;;;5.60;5.17;;;;;;;;;;5096106;28;20267;-89
2022/08/06 00:04:22;;;;;;;5.90;4.80;;;;;;;;;;5096436;28;20197;-90
2022/08/06 00:06:49;;;;;;;6.13;5.57;;;;;;;;;;5095910;28;20261;-91
2022/08/06 00:09:16;;;;;;;6.50;5.20;;;;;;;;;;5095680;28;20306;-91
2022/08/06 00:11:43;;;;;;;5.30;4.90;;;;;;;;;;5095525;28;20220;-90
2022/08/06 00:14:11;;;;;;;6.70;6.00;;;;;;;;;;5094977;28;20309;-89
2022/08/06 00:16:40;;;;;;;7.73;5.70;;;;;;;;;;5094293;28;20200;-90
2022/08/06 00:19:07;;;;;;;8.70;5.77;;;;;;;;;;5095469;28;20204;-91
2022/08/06 00:21:34;;;;;;;6.27;5.77;;;;;;;;;;5095664;28;20196;-91
2022/08/06 00:24:01;;;;;;;5.90;5.30;;;;;;;;;;5095522;28;20203;-90
2022/08/06 00:26:28;;;;;;;6.37;5.87;;;;;;;;;;5095036;28;20203;-89
2022/08/06 00:28:56;;;;;;;5.93;5.27;;;;;;;;;;5095562;28;20253;-91
2022/08/06 00:31:23;;;;;;;8.03;5.77;;;;;;;;;;5094431;28;20220;-90
2022/08/06 00:33:51;;;;;;;5.83;5.43;;;;;;;;;;5093911;28;20196;-89
2022/08/06 00:36:18;;;;;;;5.70;5.23;;;;;;;;;;5095473;28;20200;-90
2022/08/06 00:38:45;;;;;;;5.77;5.27;;;;;;;;;;5095118;28;20204;-90
2022/08/06 00:41:14;;;;;;;6.90;5.60;;;;;;;;;;5094111;28;20290;-91
2022/08/06 00:43:42;;;;;;;7.17;6.17;;;;;;;;;;5094233;28;20204;-92
2022/08/06 00:46:09;;;;;;;5.70;5.30;;;;;;;;;;5096056;28;20200;-92
2022/08/06 00:48:36;;;;;;;10.50;5.50;;;;;;;;;;5093882;28;20214;-92
2022/08/06 00:51:04;;;;;;;6.77;6.07;;;;;;;;;;5077342;28;20255;-91
2022/08/06 00:53:31;;;;;;;6.57;5.90;;;;;;;;;;5095183;28;20233;-92
2022/08/06 00:55:58;;;;;;;6.53;5.57;;;;;;;;;;5095654;28;20196;-91
2022/08/06 00:58:25;;;;;;;5.97;5.47;;;;;;;;;;5093690;28;20211;-89
2022/08/06 01:00:52;;;;;;;6.07;5.43;;;;;;;;;;5110457;28;20204;-90
2022/08/06 01:03:19;;;;;;;5.67;5.17;;;;;;;;;;5093834;28;20254;-91
2022/08/06 01:05:46;;;;;;;5.57;5.10;;;;;;;;;;5094547;28;20207;-90
2022/08/06 01:08:14;;;;;;;6.87;5.83;;;;;;;;;;5093493;28;20204;-90
2022/08/06 01:10:42;;;;;;;5.87;5.13;;;;;;;;;;5094682;28;20227;-91
2022/08/06 01:13:09;;;;;;;7.10;5.47;;;;;;;;;;5093884;28;20204;-91
2022/08/06 01:15:38;;;;;;;7.17;5.50;;;;;;;;;;5094688;28;20192;-90
2022/08/06 01:18:09;;;;;;;5.90;5.40;;;;;;;;;;5094106;28;20273;-91
2022/08/06 01:20:46;;;;;;;5.97;5.57;;;;;;;;;;5093553;28;20204;-91
2022/08/06 01:23:24;;;;;;;6.80;6.20;;;;;;;;;;5093208;28;20199;-90
2022/08/06 01:26:03;;;;;;;7.37;6.13;;;;;;;;;;5094321;28;20195;-91
2022/08/06 01:28:34;;;;;;;7.33;5.73;;;;;;;;;;5094244;28;20258;-90
2022/08/06 01:31:05;;;;;;;25.27;8.03;;;;;;;;;;5094404;28;20220;-90
2022/08/06 01:33:36;;;;;;;11.90;5.70;;;;;;;;;;5093998;28;20200;-88
2022/08/06 01:36:08;;;;;;;7.90;6.37;;;;;;;;;;5094352;28;20204;-90
2022/08/06 01:38:38;;;;;;;6.00;5.47;;;;;;;;;;5094465;28;20200;-91
2022/08/06 01:41:07;;;;;;;6.57;6.07;;;;;;;;;;5092893;28;20287;-90
2022/08/06 01:43:36;;;;;;;5.53;5.03;;;;;;;;;;5094083;28;20200;-90
2022/08/06 01:46:04;;;;;;;7.27;5.90;;;;;;;;;;5093865;28;20204;-90
2022/08/06 01:48:32;;;;;;;5.97;5.40;;;;;;;;;;5092329;28;20203;-90
2022/08/06 01:51:01;;;;;;;5.90;5.47;;;;;;;;;;5093533;28;20230;-90
2022/08/06 01:53:30;;;;;;;6.93;6.43;;;;;;;;;;5093552;28;20199;-91
2022/08/06 01:56:00;;;;;;;7.00;5.47;;;;;;;;;;5093711;28;20200;-91
2022/08/06 01:58:30;;;;;;;6.50;5.97;;;;;;;;;;5093293;28;20204;-91
2022/08/06 02:01:00;;;;;;;6.03;5.53;;;;;;;;;;5093859;28;20204;-91
2022/08/06 02:03:32;;;;;;;6.80;6.10;;;;;;;;;;5093638;28;20681;-91
2022/08/06 02:05:59;;;;;;;6.53;5.97;;;;;;;;;;5093751;28;20215;-90
2022/08/06 02:08:29;;;;;;;6.37;5.87;;;;;;;;;;5092454;28;20212;-92
2022/08/06 02:10:56;;;;;;;8.77;6.27;;;;;;;;;;5093317;28;20219;-91
2022/08/06 02:13:24;;;;;;;6.13;5.57;;;;;;;;;;5093739;28;20257;-91
2022/08/06 02:15:53;;;;;;;7.63;5.80;;;;;;;;;;5093671;28;20200;-91
2022/08/06 02:18:22;;;;;;;6.00;5.50;;;;;;;;;;5093428;28;20677;-92
2022/08/06 02:20:51;;;;;;;6.43;5.93;;;;;;;;;;5092358;28;20253;-92
2022/08/06 02:23:21;;;;;;;5.73;5.23;;;;;;;;;;5093282;28;20261;-91
2022/08/06 02:25:49;;;;;;;5.77;5.37;;;;;;;;;;5093738;28;20207;-91
2022/08/06 02:28:18;;;;;;;7.07;6.37;;;;;;;;;;5093542;28;20239;-91
2022/08/06 02:30:47;;;;;;;5.63;5.23;;;;;;;;;;5093080;28;20604;-91
2022/08/06 02:33:14;;;;;;;5.07;4.67;;;;;;;;;;5092219;28;20226;-91
2022/08/06 02:35:46;;;;;;;6.90;5.37;;;;;;;;;;5092106;28;20196;-92
2022/08/06 02:38:20;;;;;;;5.97;5.47;;;;;;;;;;5093424;28;20231;-91
2022/08/06 02:40:53;;;;;;;6.87;6.17;;;;;;;;;;5093155;28;20199;-91
2022/08/06 02:43:23;;;;;;;6.33;5.73;;;;;;;;;;5093078;28;20204;-91
2022/08/06 02:45:57;;;;;;;6.17;5.67;;;;;;;;;;5075740;28;20207;-92
2022/08/06 02:48:27;;;;;;;6.03;5.53;;;;;;;;;;5092036;28;20226;-91
2022/08/06 02:50:56;;;;;;;6.63;6.03;;;;;;;;;;5093545;28;20216;-90
2022/08/06 02:53:27;;;;;;;6.53;5.90;;;;;;;;;;5093003;28;20208;-93
2022/08/06 02:55:58;;;;;;;6.67;5.77;;;;;;;;;;5092983;28;20201;-91
2022/08/06 02:58:30;;;;;;;9.87;6.10;;;;;;;;;;5093039;28;20619;-92
2022/08/06 03:00:57;;;;;;;8.07;6.67;;;;;;;;;;5096897;28;20291;-92
2022/08/06 03:03:25;;;;;;;27.90;9.00;;;;;;;;;;5096895;28;20269;-92
2022/08/06 03:05:52;;;;;;;38.87;9.80;;;;;;;;;;5095738;28;20211;-91
2022/08/06 03:08:23;;;;;;;49.90;11.83;;;;;;;;;;5097251;28;20199;-91
2022/08/06 03:10:50;;;;;;;24.20;8.03;;;;;;;;;;5096553;28;20204;-91
2022/08/06 03:13:18;;;;;;;29.03;7.30;;;;;;;;;;5096935;28;20196;-91
2022/08/06 03:15:47;;;;;;;9.93;7.10;;;;;;;;;;5096893;28;20207;-90
2022/08/06 03:18:13;;;;;;;12.87;8.07;;;;;;;;;;5081611;28;20666;-91
2022/08/06 03:20:42;;;;;;;7.47;6.77;;;;;;;;;;5095049;28;20230;-90
2022/08/06 03:23:09;;;;;;;7.37;6.60;;;;;;;;;;5060926;28;20193;-88
2022/08/06 03:25:39;;;;;;;6.53;5.93;;;;;;;;;;5075860;28;20644;-89
2022/08/06 03:28:07;;;;;;;7.23;6.63;;;;;;;;;;5058288;28;20225;-90
2022/08/06 03:30:35;;;;;;;13.77;6.43;;;;;;;;;;5075731;28;20207;-90
2022/08/06 03:33:04;;;;;;;7.03;6.37;;;;;;;;;;5075316;28;20586;-84
2022/08/06 03:35:31;;;;;;;9.23;6.73;;;;;;;;;;5075313;28;20193;-84
2022/08/06 03:37:58;;;;;;;7.97;6.60;;;;;;;;;;5057186;28;20642;-83
2022/08/06 03:40:26;;;;;;;7.17;6.37;;;;;;;;;;5073289;28;20193;-84
2022/08/06 03:42:54;;;;;;;8.93;6.30;;;;;;;;;;5056880;28;20201;-84
2022/08/06 03:45:21;;;;;;;8.87;6.87;;;;;;;;;;5073978;28;20216;-84
2022/08/06 03:47:54;;;;;;;11.40;7.60;;;;;;;;;;5056681;28;20615;-84
2022/08/06 03:50:23;;;;;;;12.00;10.50;;;;;;;;;;5074426;28;20197;-84
2022/08/06 03:52:55;;;;;;;15.97;9.80;;;;;;;;;;5056580;28;20220;-84
2022/08/06 03:55:25;;;;;;;8.37;7.60;;;;;;;;;;5074366;28;20197;-84
2022/08/06 03:57:56;;;;;;;11.60;9.27;;;;;;;;;;5074562;28;20193;-84
2022/08/06 04:00:25;;;;;;;12.20;9.13;;;;;;;;;;5074192;28;20204;-84
2022/08/06 04:02:54;;;;;;;7.80;7.03;;;;;;;;;;5074754;28;20236;-84
2022/08/06 04:05:23;;;;;;;10.07;6.90;;;;;;;;;;5074419;28;20193;-84
2022/08/06 04:07:52;;;;;;;10.07;8.80;;;;;;;;;;5074579;28;20193;-84
2022/08/06 04:10:19;;;;;;;7.17;6.57;;;;;;;;;;5091411;28;20201;-84
2022/08/06 04:12:46;;;;;;;9.50;7.07;;;;;;;;;;5061846;28;20235;-84
2022/08/06 04:15:15;;;;;;;11.80;7.77;;;;;;;;;;5073916;28;20208;-84
2022/08/06 04:17:43;;;;;;;8.10;7.43;;;;;;;;;;5072605;28;20204;-86
2022/08/06 04:20:11;;;;;;;7.57;5.90;;;;;;;;;;5073088;28;20682;-84
2022/08/06 04:22:38;;;;;;;6.07;5.57;;;;;;;;;;5073705;28;20197;-84
2022/08/06 04:25:06;;;;;;;5.70;5.13;;;;;;;;;;5076767;28;20270;-83
2022/08/06 04:27:35;;;;;;;6.10;5.60;;;;;;;;;;5094198;28;20236;-83
2022/08/06 04:30:02;;;;;;;5.60;5.17;;;;;;;;;;5094309;28;20196;-84
2022/08/06 04:32:31;;;;;;;7.40;5.70;;;;;;;;;;5093436;28;20228;-83
2022/08/06 04:34:59;;;;;;;6.43;5.87;;;;;;;;;;5093666;28;20675;-83
2022/08/06 04:37:26;;;;;;;8.77;5.93;;;;;;;;;;5080515;28;20197;-83
2022/08/06 04:39:53;;;;;;;7.33;5.43;;;;;;;;;;5061999;28;20600;-83
2022/08/06 04:42:20;;;;;;;6.67;5.73;;;;;;;;;;5094098;28;20261;-83
2022/08/06 04:48:11;;;;;;;6.33;5.83;;;;;;;;;;5093884;28;20262;-84
2022/08/06 04:50:40;;;;;;;6.03;5.53;;;;;;;;;;5093933;28;20208;-84
2022/08/06 04:53:08;;;;;;;5.70;5.23;;;;;;;;;;5093930;28;20220;-84
2022/08/06 04:55:35;;;;;;;5.10;4.60;;;;;;;;;;5093473;28;20196;-84
2022/08/06 04:58:02;;;;;;;6.37;5.73;;;;;;;;;;5093275;28;20620;-84
2022/08/06 05:00:30;;;;;;;5.50;5.00;;;;;;;;;;5076962;28;20705;-83
2022/08/06 05:02:57;;;;;;;6.40;5.70;;;;;;;;;;5060388;28;20196;-83
2022/08/06 05:05:26;;;;;;;5.33;4.93;;;;;;;;;;5054267;28;20246;-85
2022/08/06 05:07:54;;;;;;;7.77;7.07;;;;;;;;;;5055135;28;20215;-83
2022/08/06 05:10:22;;;;;;;9.80;6.97;;;;;;;;;;5072266;28;20216;-84
2022/08/06 05:12:52;;;;;;;7.27;6.23;;;;;;;;;;5075402;28;20220;-83
2022/08/06 05:15:23;;;;;;;8.57;6.47;;;;;;;;;;5092528;28;20203;-83
2022/08/06 05:17:54;;;;;;;6.13;5.63;;;;;;;;;;5081341;28;20197;-84
2022/08/06 05:20:22;;;;;;;6.20;5.57;;;;;;;;;;5072853;28;20251;-83
2022/08/06 05:22:54;;;;;;;6.60;5.30;;;;;;;;;;5072136;28;20193;-83
2022/08/06 05:25:21;;;;;;;6.53;6.03;;;;;;;;;;5071392;28;20255;-84
2022/08/06 05:27:48;;;;;;;6.70;6.10;;;;;;;;;;5079952;28;20235;-84
2022/08/06 05:30:16;;;;;;;10.23;7.53;;;;;;;;;;5058444;28;20200;-84
2022/08/06 05:32:43;;;;;;;17.07;11.93;;;;;;;;;;5085617;28;20585;-84
2022/08/06 05:35:10;;;;;;;15.10;13.20;;;;;;;;;;5089025;28;20204;-84
2022/08/06 05:37:38;;;;;;;13.93;12.50;;;;;;;;;;5037811;28;20613;-83
2022/08/06 05:40:09;;;;;;;15.00;13.27;;;;;;;;;;5073029;28;20604;-83
2022/08/06 05:42:36;;;;;;;13.20;11.80;;;;;;;;;;5072334;28;20201;-83
2022/08/06 05:45:03;;;;;;;13.03;11.93;;;;;;;;;;5065418;28;20200;-83
2022/08/06 05:47:35;;;;;;;12.63;11.27;;;;;;;;;;5074344;28;20548;-83
2022/08/06 05:50:06;;;;;;;11.20;10.20;;;;;;;;;;5065121;28;20200;-83
2022/08/06 05:52:38;;;;;;;10.07;9.07;;;;;;;;;;5072603;28;20235;-86
2022/08/06 05:55:10;;;;;;;8.60;7.83;;;;;;;;;;5073990;28;20203;-84
2022/08/06 05:57:39;;;;;;;7.97;7.10;;;;;;;;;;5072259;28;20196;-82
2022/08/06 06:00:09;;;;;;;8.23;7.43;;;;;;;;;;5070661;28;20671;-84
2022/08/06 06:02:37;;;;;;;9.97;7.73;;;;;;;;;;5072148;28;20668;-83
2022/08/06 06:05:05;;;;;;;7.07;5.93;;;;;;;;;;5079623;28;20617;-83
2022/08/06 06:07:32;;;;;;;6.30;5.70;;;;;;;;;;5091448;28;20204;-83
2022/08/06 06:09:59;;;;;;;7.43;6.73;;;;;;;;;;5084123;28;20201;-83
2022/08/06 06:12:29;;;;;;;6.60;6.00;;;;;;;;;;5078542;28;20572;-83
2022/08/06 06:14:57;;;;;;;5.93;5.43;;;;;;;;;;5071588;28;20615;-83
2022/08/06 06:17:45;;;;;;;6.17;5.67;;;;;;;;;;5076226;28;20204;-83
2022/08/06 06:20:18;;;;;;;7.83;5.90;;;;;;;;;;5061947;28;20652;-83
2022/08/06 06:22:53;;;;;;;5.73;5.33;;;;;;;;;;5088176;28;20207;-83
2022/08/06 06:25:25;;;;;;;6.13;5.30;;;;;;;;;;5077397;28;20330;-82
2022/08/06 06:28:04;;;;;;;5.93;4.97;;;;;;;;;;5079895;28;21365;-82
2022/08/06 06:30:43;;;;;;;5.07;4.67;;;;;;;;;;5076882;28;20199;-83
2022/08/06 06:33:16;;;;;;;7.83;5.30;;;;;;;;;;5082974;28;20320;-83
2022/08/06 06:35:51;;;;;;;5.93;5.47;;;;;;;;;;5083887;28;20196;-83
2022/08/06 06:38:24;;;;;;;6.87;6.33;;;;;;;;;;5097089;28;20567;-83
2022/08/06 06:40:57;;;;;;;5.57;5.07;;;;;;;;;;5098145;28;20258;-82
2022/08/06 06:43:32;;;;;;;7.50;5.30;;;;;;;;;;5088995;28;20203;-86
2022/08/06 06:46:05;;;;;;;5.70;5.20;;;;;;;;;;5077093;28;20200;-83
2022/08/06 06:48:36;;;;;;;6.53;5.93;;;;;;;;;;5064602;28;20207;-85
2022/08/06 06:51:06;;;;;;;6.60;5.60;;;;;;;;;;5060465;28;20200;-83
2022/08/06 06:53:36;;;;;;;8.40;5.30;;;;;;;;;;5084774;28;20236;-83
2022/08/06 06:56:03;;;;;;;7.82;5.80;;;;;;;;;;5097631;28;20215;-82
2022/08/06 06:58:34;;;;;;;6.50;5.83;;;;;;;;;;5101784;28;20196;-82
2022/08/06 07:01:01;;;;;;;7.13;5.90;;;;;;;;;;5078882;28;20204;-84
2022/08/06 07:03:33;;;;;;;9.50;5.95;;;;;;;;;;5059271;28;20208;-82
2022/08/06 07:06:17;;;;;;;6.50;5.93;;;;;;;;;;5044800;28;20207;-83
2022/08/06 07:08:47;;;;;;;8.80;5.78;;;;;;;;;;5077340;28;20200;-83
2022/08/06 07:11:18;;;;;;;7.10;6.27;;;;;;;;;;5086362;28;20192;-82
2022/08/06 07:13:54;;;;;;;6.85;6.00;;;;;;;;;;5088208;28;20223;-83
2022/08/06 07:16:25;;;;;;;7.25;5.28;;;;;;;;;;5080579;28;20204;-83
2022/08/06 07:18:54;;;;;;;6.57;5.88;;;;;;;;;;5077454;28;20243;-83
2022/08/06 07:21:25;;;;;;;6.22;5.63;;;;;;;;;;5077665;28;20639;-83
2022/08/06 07:23:53;;;;;;;7.80;6.53;;;;;;;;;;5076274;28;20551;-83
2022/08/06 07:26:21;;;;;;;9.88;6.60;;;;;;;;;;5077608;28;20208;-83
2022/08/06 07:28:51;;;;;;;6.63;5.28;;;;;;;;;;5053548;28;20200;-83
2022/08/06 07:31:19;;;;;;;5.60;5.00;;;;;;;;;;5036972;28;20206;-82
2022/08/06 07:33:50;;;;;;;6.38;5.88;;;;;;;;;;5037031;28;20228;-83
2022/08/06 07:36:18;;;;;;;4.80;4.40;;;;;;;;;;5040017;28;20683;-82
2022/08/06 07:38:46;;;;;;;5.32;4.93;;;;;;;;;;5039231;28;20591;-82
2022/08/06 07:41:13;;;;;;;5.60;4.43;;;;;;;;;;5048095;28;20251;-83
2022/08/06 07:43:44;;;;;;;5.50;5.00;;;;;;;;;;5045278;28;20201;-82
2022/08/06 07:46:15;;;;;;;5.22;4.72;;;;;;;;;;5041142;28;20206;-83
2022/08/06 07:48:49;;;;;;;5.70;4.43;;;;;;;;;;5054146;28;20194;-82
2022/08/06 07:51:16;;;;;;;4.82;4.43;;;;;;;;;;5041300;28;20198;-83
2022/08/06 07:53:44;;;;;;;7.15;5.57;;;;;;;;;;5032956;28;20222;-84
2022/08/06 07:56:11;;;;;;;4.43;4.10;;;;;;;;;;5034486;28;20230;-83
2022/08/06 07:58:38;;;;;;;5.22;4.82;;;;;;;;;;5034120;28;20592;-82
2022/08/06 08:01:07;;;;;;;5.18;4.68;;;;;;;;;;5047997;28;20203;-83
2022/08/06 08:06:22;;;;;;;5.45;4.97;;;;;;;;;;5033278;28;20300;-83
2022/08/06 08:08:50;;;;;;;4.88;4.50;;;;;;;;;;5038759;28;20280;-83
2022/08/06 08:11:18;;;;;;;5.20;4.80;;;;;;;;;;5036381;28;20210;-82
2022/08/06 08:13:45;;;;;;;5.47;4.90;;;;;;;;;;5031955;28;20277;-82
2022/08/06 08:16:14;;;;;;;4.45;4.13;;;;;;;;;;5033181;28;20199;-82
2022/08/06 08:18:43;;;;;;;5.93;4.82;;;;;;;;;;5034706;28;20284;-82
2022/08/06 08:21:11;;;;;;;6.00;4.07;;;;;;;;;;5039658;28;20210;-82
2022/08/06 08:23:39;;;;;;;7.80;4.55;;;;;;;;;;5033298;28;20261;-82
2022/08/06 08:26:07;;;;;;;4.93;4.43;;;;;;;;;;5036925;28;20284;-83
2022/08/06 08:28:34;;;;;;;4.78;4.35;;;;;;;;;;5074361;28;20225;-82
2022/08/06 08:31:03;;;;;;;4.30;4.00;;;;;;;;;;5073158;28;20193;-82
2022/08/06 08:33:30;;;;;;;5.22;4.80;;;;;;;;;;5088199;28;20286;-82
2022/08/06 08:36:00;;;;;;;6.80;3.80;;;;;;;;;;5066951;28;20192;-81
2022/08/06 08:38:27;;;;;;;5.03;4.53;;;;;;;;;;5081284;28;20208;-82
2022/08/06 08:40:55;;;;;;;5.25;4.60;;;;;;;;;;5055523;28;20631;-83
2022/08/06 08:43:24;;;;;;;4.38;4.00;;;;;;;;;;5080952;28;20199;-81
2022/08/06 08:45:53;;;;;;;5.07;4.68;;;;;;;;;;5073378;28;20209;-81
2022/08/06 08:48:24;;;;;;;11.30;4.40;;;;;;;;;;5073453;28;20240;-81
2022/08/06 08:50:51;;;;;;;5.07;4.10;;;;;;;;;;5073158;28;20583;-81
2022/08/06 08:53:23;;;;;;;7.25;4.85;;;;;;;;;;5073008;28;20221;-81
2022/08/06 08:55:50;;;;;;;4.38;3.97;;;;;;;;;;5072009;28;20219;-82
2022/08/06 08:58:17;;;;;;;4.55;4.25;;;;;;;;;;5075027;28;20203;-81
2022/08/06 09:00:45;;;;;;;4.15;3.85;;;;;;;;;;5092759;28;20254;-82
2022/08/06 09:03:12;;;;;;;4.78;3.80;;;;;;;;;;5076144;28;20200;-81
2022/08/06 09:05:39;;;;;;;4.47;4.00;;;;;;;;;;5093425;28;20197;-81
2022/08/06 09:08:06;;;;;;;6.13;4.40;;;;;;;;;;5093296;28;20249;-82
2022/08/06 09:10:34;;;;;;;4.93;3.80;;;;;;;;;;5080283;28;20262;-81
2022/08/06 09:13:01;;;;;;;4.32;3.95;;;;;;;;;;5071941;28;20217;-81
2022/08/06 09:15:28;;;;;;;5.78;4.10;;;;;;;;;;5072721;28;20208;-82
2022/08/06 09:17:55;;;;;;;4.18;3.88;;;;;;;;;;5055399;28;20205;-81
2022/08/06 09:20:22;;;;;;;5.78;4.32;;;;;;;;;;5054781;28;20679;-81
2022/08/06 09:22:50;;;;;;;4.60;4.20;;;;;;;;;;5073320;28;20205;-81
2022/08/06 09:25:39;;;;;;;4.43;4.07;;;;;;;;;;5054933;28;20197;-82
2022/08/06 09:28:10;;;;;;;4.70;4.20;;;;;;;;;;5073006;28;20224;-80
2022/08/06 09:30:38;;;;;;;4.53;4.13;;;;;;;;;;5072319;28;20246;-80
2022/08/06 09:33:12;;;;;;;8.25;6.55;;;;;;;;;;5072461;28;20216;-81
2022/08/06 09:35:40;;;;;;;5.18;4.03;;;;;;;;;;5072621;28;20193;-81
2022/08/06 09:38:09;;;;;;;29.88;27.17;;;;;;;;;;5072838;28;20205;-81
2022/08/06 09:40:37;;;;;;;4.60;4.20;;;;;;;;;;5073064;28;20286;-80
2022/08/06 09:43:04;;;;;;;6.15;5.65;;;;;;;;;;5071997;28;20270;-81
2022/08/06 09:45:31;;;;;;;4.80;4.38;;;;;;;;;;5072229;28;20205;-80
2022/08/06 09:48:03;;;;;;;7.15;4.63;;;;;;;;;;5071047;28;20196;-81
2022/08/06 09:50:40;;;;;;;8.00;4.43;;;;;;;;;;5072706;28;20212;-81
2022/08/06 09:53:07;;;;;;;4.45;4.15;;;;;;;;;;5071782;28;20702;-81
2022/08/06 09:55:35;;;;;;;4.32;3.95;;;;;;;;;;5073085;28;20690;-78
2022/08/06 09:58:03;;;;;;;4.35;3.92;;;;;;;;;;5072046;28;20279;-81
2022/08/06 10:00:31;;;;;;;4.10;3.78;;;;;;;;;;5072177;28;20197;-81
2022/08/06 10:02:59;;;;;;;5.20;3.38;;;;;;;;;;5071867;28;20675;-81
2022/08/06 10:05:28;;;;;;;6.30;4.22;;;;;;;;;;5072266;28;20193;-81
2022/08/06 10:08:07;;;;;;;3.67;3.42;;;;;;;;;;5072176;28;20201;-81
2022/08/06 10:10:42;;;;;;;4.80;4.30;;;;;;;;;;5072159;28;20203;-81
2022/08/06 10:13:19;;;;;;;4.43;4.10;;;;;;;;;;5072000;28;20219;-80
2022/08/06 10:15:46;;;;;;;4.15;3.78;;;;;;;;;;5071915;28;20208;-81
2022/08/06 10:18:31;;;;;;;5.18;4.07;;;;;;;;;;5070692;28;20193;-81
2022/08/06 10:21:02;;;;;;;3.90;3.60;;;;;;;;;;5071695;28;20258;-83
2022/08/06 10:23:32;;;;;;;4.20;3.80;;;;;;;;;;5071922;28;20201;-83
2022/08/06 10:25:59;;;;;;;4.28;3.90;;;;;;;;;;5071928;28;20196;-82
2022/08/06 10:28:28;;;;;;;3.95;3.65;;;;;;;;;;5071432;28;20225;-85
2022/08/06 10:30:56;;;;;;;4.43;4.03;;;;;;;;;;5071278;28;20205;-81
2022/08/06 10:33:25;;;;;;;4.22;3.63;;;;;;;;;;5054330;28;20224;-81
2022/08/06 10:35:56;;;;;;;6.25;4.03;;;;;;;;;;5053830;28;20204;-81
2022/08/06 10:38:28;;;;;;;5.15;3.80;;;;;;;;;;5070763;28;20205;-81
2022/08/06 10:40:58;;;;;;;3.95;3.65;;;;;;;;;;5053626;28;20710;-81
2022/08/06 10:43:30;;;;;;;4.75;3.42;;;;;;;;;;5053411;28;20208;-81
2022/08/06 10:46:00;;;;;;;3.65;3.35;;;;;;;;;;5071693;28;20246;-82
2022/08/06 10:48:28;;;;;;;6.47;4.30;;;;;;;;;;5072319;28;20220;-81
2022/08/06 10:50:56;;;;;;;4.07;3.78;;;;;;;;;;5053749;28;20208;-81
2022/08/06 10:53:23;;;;;;;3.53;3.33;;;;;;;;;;5053190;28;20228;-82
2022/08/06 10:55:50;;;;;;;3.67;3.47;;;;;;;;;;5071953;28;20205;-82
2022/08/06 10:58:17;;;;;;;4.50;4.10;;;;;;;;;;5071145;28;20200;-81
2022/08/06 11:00:45;;;;;;;4.00;3.63;;;;;;;;;;5071911;28;20197;-82
2022/08/06 11:03:19;;;;;;;3.95;3.65;;;;;;;;;;5070995;28;20201;-82
2022/08/06 11:05:53;;;;;;;3.65;3.42;;;;;;;;;;5070803;28;20579;-81
2022/08/06 11:08:37;;;;;;;3.35;3.15;;;;;;;;;;5053643;28;20234;-81
2022/08/06 11:11:15;;;;;;;4.70;3.30;;;;;;;;;;5068807;28;20196;-81
2022/08/06 11:13:53;;;;;;;6.65;3.88;;;;;;;;;;5071049;28;20729;-81
2022/08/06 11:16:25;;;;;;;4.80;3.75;;;;;;;;;;5053853;28;20213;-81
2022/08/06 11:19:00;;;;;;;4.97;4.30;;;;;;;;;;5071581;28;20201;-82
2022/08/06 11:21:37;;;;;;;4.40;4.00;;;;;;;;;;5073103;28;20227;-81
2022/08/06 11:24:05;;;;;;;4.65;3.80;;;;;;;;;;5074988;28;20285;-82
2022/08/06 11:26:35;;;;;;;5.70;4.18;;;;;;;;;;5057103;28;20209;-81
2022/08/06 11:29:02;;;;;;;4.47;3.30;;;;;;;;;;5075232;28;20197;-82
2022/08/06 11:31:45;;;;;;;5.35;4.10;;;;;;;;;;5074191;28;20208;-78
2022/08/06 11:34:14;;;;;;;3.95;3.65;;;;;;;;;;5074905;28;20628;-77
2022/08/06 11:36:59;;;;;;;4.13;3.83;;;;;;;;;;5074500;28;20205;-76
2022/08/06 11:39:27;;;;;;;4.00;3.70;;;;;;;;;;5074824;28;20228;-79
2022/08/06 11:41:57;;;;;;;4.22;3.92;;;;;;;;;;5076261;28;20223;-78
2022/08/06 11:44:26;;;;;;;3.85;3.55;;;;;;;;;;5095000;28;20667;-78
2022/08/06 11:47:19;;;;;;;4.30;4.00;;;;;;;;;;5093621;28;20204;-78
2022/08/06 11:49:47;;;;;;;6.10;3.70;;;;;;;;;;5076686;28;20292;-80
2022/08/06 11:52:40;;;;;;;3.63;3.42;;;;;;;;;;5094569;28;20662;-79
2022/08/06 11:55:10;;;;;;;5.20;4.05;;;;;;;;;;5093737;28;20227;-76
2022/08/06 11:57:40;;;;;;;4.35;4.05;;;;;;;;;;5093628;28;20277;-78
2022/08/06 12:00:15;;;;;;;4.40;4.00;;;;;;;;;;5044719;28;20288;-78
2022/08/06 12:02:53;;;;;;;3.78;3.47;;;;;;;;;;5094253;28;20207;-77
2022/08/06 12:05:41;;;;;;;4.20;3.88;;;;;;;;;;5093936;28;20203;-77
2022/08/06 12:08:28;;;;;;;3.80;3.50;;;;;;;;;;5093381;28;20199;-77
2022/08/06 12:11:29;;;;;;;4.20;3.80;;;;;;;;;;5094596;28;20197;-76
2022/08/06 12:13:57;;;;;;;4.28;4.00;;;;;;;;;;5083401;28;20306;-79
2022/08/06 12:16:29;;;;;;;4.03;3.72;;;;;;;;;;5094417;28;20200;-81
2022/08/06 12:18:57;;;;;;;5.57;4.25;;;;;;;;;;5094360;28;20265;-81
2022/08/06 12:21:24;;;;;;;3.95;3.65;;;;;;;;;;5094122;28;20209;-79
2022/08/06 12:23:52;;;;;;;3.92;3.63;;;;;;;;;;5094245;28;20231;-82
2022/08/06 12:26:19;;;;;;;4.07;3.78;;;;;;;;;;5094496;28;20246;-79
2022/08/06 12:28:46;;;;;;;4.65;4.25;;;;;;;;;;5094516;28;20227;-79
2022/08/06 12:31:14;;;;;;;4.28;3.92;;;;;;;;;;5093485;28;20196;-81
2022/08/06 12:33:42;;;;;;;6.00;4.10;;;;;;;;;;5093824;28;20253;-83
2022/08/06 12:36:10;;;;;;;5.93;5.32;;;;;;;;;;5094713;28;20200;-80
2022/08/06 12:38:37;;;;;;;4.88;4.10;;;;;;;;;;5075874;28;20203;-85
2022/08/06 12:41:08;;;;;;;4.50;4.10;;;;;;;;;;5092560;28;20265;-85
2022/08/06 12:43:37;;;;;;;4.88;4.55;;;;;;;;;;5076564;28;20200;-84
2022/08/06 12:46:05;;;;;;;4.50;4.05;;;;;;;;;;5093472;28;20199;-85
2022/08/06 12:48:33;;;;;;;4.70;4.28;;;;;;;;;;5093614;28;20725;-85
2022/08/06 12:51:05;;;;;;;6.80;3.90;;;;;;;;;;5093787;28;20208;-84
2022/08/06 12:53:34;;;;;;;4.68;4.38;;;;;;;;;;5093908;28;20207;-84
2022/08/06 12:56:01;;;;;;;4.25;3.92;;;;;;;;;;5093302;28;20227;-84
2022/08/06 12:58:32;;;;;;;4.32;4.00;;;;;;;;;;5075291;28;20253;-84
2022/08/06 13:00:59;;;;;;;4.75;4.35;;;;;;;;;;5093264;28;20299;-84
2022/08/06 13:03:38;;;;;;;4.28;3.97;;;;;;;;;;5093239;28;20697;-84
2022/08/06 13:06:07;;;;;;;4.47;4.07;;;;;;;;;;5093553;28;20302;-83
2022/08/06 13:08:36;;;;;;;7.03;5.63;;;;;;;;;;5093299;28;20208;-84
2022/08/06 13:11:03;;;;;;;4.00;3.70;;;;;;;;;;5093894;28;20697;-84
2022/08/06 13:13:37;;;;;;;4.35;4.05;;;;;;;;;;5093111;28;20695;-84
2022/08/06 13:16:06;;;;;;;4.30;3.90;;;;;;;;;;5093171;28;20280;-84
2022/08/06 13:18:33;;;;;;;3.95;3.65;;;;;;;;;;5092957;28;20208;-84
2022/08/06 13:21:01;;;;;;;4.18;3.88;;;;;;;;;;5091457;28;20200;-84
2022/08/06 13:23:30;;;;;;;4.05;3.75;;;;;;;;;;5075150;28;20227;-84
2022/08/06 13:25:59;;;;;;;5.47;4.97;;;;;;;;;;5093248;28;20196;-84
2022/08/06 13:28:26;;;;;;;9.57;4.93;;;;;;;;;;5093105;28;20227;-84
2022/08/06 13:30:53;;;;;;;4.28;3.97;;;;;;;;;;5093185;28;20681;-84
2022/08/06 13:33:21;;;;;;;5.93;4.35;;;;;;;;;;5095374;28;20212;-83
2022/08/06 13:35:50;;;;;;;5.78;4.20;;;;;;;;;;5072266;28;20224;-84
2022/08/06 13:38:27;;;;;;;3.92;3.63;;;;;;;;;;5072771;28;20672;-83
2022/08/06 13:40:54;;;;;;;4.30;3.78;;;;;;;;;;5072245;28;20201;-83
2022/08/06 13:43:34;;;;;;;4.40;4.00;;;;;;;;;;5071575;28;20200;-82
2022/08/06 13:46:08;;;;;;;4.55;4.22;;;;;;;;;;5072137;28;20606;-83
2022/08/06 13:48:36;;;;;;;4.85;4.45;;;;;;;;;;5072110;28;20208;-83
2022/08/06 13:51:03;;;;;;;5.72;4.80;;;;;;;;;;5053884;28;20262;-83
2022/08/06 13:53:30;;;;;;;4.32;4.03;;;;;;;;;;5072059;28;20204;-81
2022/08/06 13:55:57;;;;;;;4.78;4.38;;;;;;;;;;5071971;28;20235;-82
2022/08/06 13:58:27;;;;;;;4.65;4.25;;;;;;;;;;5072006;28;20621;-82
2022/08/06 14:00:54;;;;;;;4.55;4.15;;;;;;;;;;5071934;28;20204;-81
2022/08/06 14:03:21;;;;;;;4.28;3.88;;;;;;;;;;5071870;28;20200;-83
2022/08/06 14:05:47;;;;;;;4.20;3.90;;;;;;;;;;5071831;28;20200;-81
2022/08/06 14:08:14;;;;;;;3.95;3.65;;;;;;;;;;5071821;28;20208;-82
2022/08/06 14:10:41;;;;;;;4.28;3.97;;;;;;;;;;5053757;28;20262;-81
2022/08/06 14:13:17;;;;;;;4.78;4.32;;;;;;;;;;5072296;28;20200;-83
2022/08/06 14:15:50;;;;;;;4.38;3.97;;;;;;;;;;5055163;28;20702;-83
2022/08/06 14:18:18;;;;;;;4.35;4.05;;;;;;;;;;5071734;28;20291;-83
2022/08/06 14:20:45;;;;;;;4.35;4.00;;;;;;;;;;5071666;28;20197;-83
2022/08/06 14:23:12;;;;;;;4.82;4.35;;;;;;;;;;5071633;28;20211;-84
2022/08/06 14:25:39;;;;;;;6.10;4.78;;;;;;;;;;5071073;28;20205;-84
2022/08/06 14:28:06;;;;;;;4.47;4.07;;;;;;;;;;5071768;28;20240;-83
2022/08/06 14:30:33;;;;;;;4.47;4.10;;;;;;;;;;5053463;28;20223;-84
2022/08/06 14:33:08;;;;;;;3.88;3.67;;;;;;;;;;5071549;28;20204;-84
2022/08/06 14:35:36;;;;;;;4.45;4.10;;;;;;;;;;5072096;28;20305;-84
2022/08/06 14:38:04;;;;;;;4.75;4.35;;;;;;;;;;5071974;28;20279;-83
2022/08/06 14:46:13;;;;;;;6.50;4.35;;;;;;;;;;5067115;28;20705;-84
2022/08/06 14:48:41;;;;;;;4.30;4.00;;;;;;;;;;5071942;28;20258;-82
2022/08/06 14:51:08;;;;;;;4.10;3.80;;;;;;;;;;5071741;28;20203;-83
2022/08/06 14:53:35;;;;;;;3.95;3.72;;;;;;;;;;5071501;28;20201;-83
2022/08/06 14:56:03;;;;;;;4.25;3.97;;;;;;;;;;5075399;28;20221;-83
2022/08/06 14:58:30;;;;;;;4.97;4.57;;;;;;;;;;5075657;28;20196;-83
2022/08/06 15:00:57;;;;;;;4.32;3.88;;;;;;;;;;5075231;28;20200;-83
2022/08/06 15:03:27;;;;;;;4.65;4.22;;;;;;;;;;5057609;28;20649;-84
2022/08/06 15:05:55;;;;;;;4.13;3.83;;;;;;;;;;5075725;28;20243;-83
2022/08/06 15:08:22;;;;;;;4.85;4.32;;;;;;;;;;5074856;28;20193;-83